sensor_id;sensor_type;location;lat;lon;timestamp;pressure;altitude;pressure_sealevel;temperature;humidity
10006;BME280;5042;42.626;23.382;2023-04-02T00:02:26;93490.94;;;8.91;100.00
10006;BME280;5042;42.626;23.382;2023-04-02T00:08:00;93494.97;;;8.94;100.00
10006;BME280;5042;42.626;23.382;2023-04-02T00:10:30;93496.78;;;9.00;100.00
10006;BME280;5042;42.626;23.382;2023-04-02T00:13:02;93500.81;;;9.03;100.00
10006;BME280;5042;42.626;23.382;2023-04-02T00:15:31;93497.38;;;9.02;100.00
10006;BME280;5042;42.626;23.382;2023-04-02T00:18:00;93492.16;;;9.02;100.00
10006;BME280;5042;42.626;23.382;2023-04-02T00:20:27;93491.16;;;9.10;100.00
10006;BME280;5042;42.626;23.382;2023-04-02T00:22:56;93494.34;;;9.05;100.00
10006;BME280;5042;42.626;23.382;2023-04-02T00:25:25;93461.59;;;8.83;100.00
10006;BME280;5042;42.626;23.382;2023-04-02T00:27:52;93475.44;;;8.97;100.00
10006;BME280;5042;42.626;23.382;2023-04-02T00:30:19;93481.09;;;9.00;100.00
10006;BME280;5042;42.626;23.382;2023-04-02T00:32:46;93457.97;;;8.90;100.00
10006;BME280;5042;42.626;23.382;2023-04-02T00:35:18;93470.63;;;8.94;100.00
10006;BME280;5042;42.626;23.382;2023-04-02T00:37:46;93469.63;;;8.88;100.00
10006;BME280;5042;42.626;23.382;2023-04-02T00:40:18;93457.38;;;8.88;100.00
10006;BME280;5042;42.626;23.382;2023-04-02T00:42:47;93468.63;;;8.96;100.00
10006;BME280;5042;42.626;23.382;2023-04-02T00:45:21;93465.41;;;8.94;100.00
10006;BME280;5042;42.626;23.382;2023-04-02T00:47:48;93458.56;;;8.86;100.00
10006;BME280;5042;42.626;23.382;2023-04-02T00:50:23;93468.63;;;8.96;100.00
10006;BME280;5042;42.626;23.382;2023-04-02T00:52:53;93465.00;;;8.97;100.00
10006;BME280;5042;42.626;23.382;2023-04-02T00:55:24;93441.06;;;8.80;100.00
10006;BME280;5042;42.626;23.382;2023-04-02T00:57:53;93451.34;;;8.81;100.00
10006;BME280;5042;42.626;23.382;2023-04-02T01:00:23;93470.22;;;8.97;100.00
10006;BME280;5042;42.626;23.382;2023-04-02T01:06:12;93466.22;;;9.01;100.00
10006;BME280;5042;42.626;23.382;2023-04-02T01:08:50;93463.41;;;8.96;100.00
10006;BME280;5042;42.626;23.382;2023-04-02T01:11:31;93464.41;;;8.95;100.00
10006;BME280;5042;42.626;23.382;2023-04-02T01:14:09;93460.00;;;9.02;100.00
10006;BME280;5042;42.626;23.382;2023-04-02T01:16:44;93481.09;;;9.00;100.00
10006;BME280;5042;42.626;23.382;2023-04-02T01:19:44;93477.69;;;9.00;100.00
10006;BME280;5042;42.626;23.382;2023-04-02T01:22:22;93475.06;;;8.66;100.00
10006;BME280;5042;42.626;23.382;2023-04-02T01:24:55;93356.97;;;7.28;100.00
10006;BME280;5042;42.626;23.382;2023-04-02T01:27:26;93480.03;;;7.52;100.00
10006;BME280;5042;42.626;23.382;2023-04-02T01:29:56;93496.03;;;7.07;100.00
10006;BME280;5042;42.626;23.382;2023-04-02T01:32:25;93497.28;;;6.90;100.00
10006;BME280;5042;42.626;23.382;2023-04-02T01:34:54;93498.59;;;6.79;100.00
10006;BME280;5042;42.626;23.382;2023-04-02T01:37:32;93494.38;;;6.56;100.00
10006;BME280;5042;42.626;23.382;2023-04-02T01:40:16;93478.59;;;6.36;100.00
10006;BME280;5042;42.626;23.382;2023-04-02T01:42:52;93484.44;;;6.45;100.00
10006;BME280;5042;42.626;23.382;2023-04-02T01:45:24;93488.75;;;6.53;100.00
10006;BME280;5042;42.626;23.382;2023-04-02T01:47:51;93487.13;;;6.52;100.00
10006;BME280;5042;42.626;23.382;2023-04-02T01:50:25;93492.09;;;6.47;100.00
10006;BME280;5042;42.626;23.382;2023-04-02T01:52:58;93465.56;;;6.36;100.00
10006;BME280;5042;42.626;23.382;2023-04-02T01:55:31;93483.03;;;6.21;100.00
10006;BME280;5042;42.626;23.382;2023-04-02T01:58:00;93481.38;;;5.99;100.00
10006;BME280;5042;42.626;23.382;2023-04-02T02:00:30;93477.38;;;5.66;100.00
10006;BME280;5042;42.626;23.382;2023-04-02T02:02:59;93484.06;;;5.76;100.00
10006;BME280;5042;42.626;23.382;2023-04-02T02:05:27;93481.66;;;5.74;100.00
10006;BME280;5042;42.626;23.382;2023-04-02T02:07:55;93480.50;;;5.62;100.00
10006;BME280;5042;42.626;23.382;2023-04-02T02:10:25;93486.34;;;5.64;100.00
10006;BME280;5042;42.626;23.382;2023-04-02T02:12:52;93486.25;;;5.57;100.00
10006;BME280;5042;42.626;23.382;2023-04-02T02:15:20;93473.97;;;5.51;100.00
10006;BME280;5042;42.626;23.382;2023-04-02T02:17:50;93486.69;;;5.61;100.00
10006;BME280;5042;42.626;23.382;2023-04-02T02:20:21;93477.66;;;5.42;100.00
10006;BME280;5042;42.626;23.382;2023-04-02T02:22:49;93490.75;;;5.48;100.00
10006;BME280;5042;42.626;23.382;2023-04-02T02:25:18;93490.38;;;5.51;100.00
10006;BME280;5042;42.626;23.382;2023-04-02T02:27:52;93490.47;;;5.43;100.00
10006;BME280;5042;42.626;23.382;2023-04-02T02:30:23;93462.78;;;5.21;100.00
10006;BME280;5042;42.626;23.382;2023-04-02T02:32:58;93490.38;;;5.51;100.00
10006;BME280;5042;42.626;23.382;2023-04-02T02:35:28;93487.63;;;5.53;100.00
10006;BME280;5042;42.626;23.382;2023-04-02T02:38:03;93483.75;;;5.49;100.00
10006;BME280;5042;42.626;23.382;2023-04-02T02:40:35;93482.59;;;5.51;100.00
10006;BME280;5042;42.626;23.382;2023-04-02T02:43:05;93478.00;;;5.53;100.00
10006;BME280;5042;42.626;23.382;2023-04-02T02:45:37;93480.06;;;5.43;100.00
10006;BME280;5042;42.626;23.382;2023-04-02T02:48:10;93492.59;;;5.55;100.00
10006;BME280;5042;42.626;23.382;2023-04-02T02:50:39;93485.63;;;5.70;100.00
10006;BME280;5042;42.626;23.382;2023-04-02T02:53:15;93489.28;;;5.76;100.00
10006;BME280;5042;42.626;23.382;2023-04-02T02:55:42;93486.50;;;5.62;100.00
10006;BME280;5042;42.626;23.382;2023-04-02T02:58:13;93486.25;;;5.72;100.00
10006;BME280;5042;42.626;23.382;2023-04-02T03:00:41;93474.72;;;5.81;100.00
10006;BME280;5042;42.626;23.382;2023-04-02T03:03:12;93469.63;;;5.88;100.00
10006;BME280;5042;42.626;23.382;2023-04-02T03:05:40;93478.16;;;5.97;100.00
10006;BME280;5042;42.626;23.382;2023-04-02T03:08:12;93427.78;;;5.68;100.00
10006;BME280;5042;42.626;23.382;2023-04-02T03:10:47;93489.63;;;5.87;100.00
10006;BME280;5042;42.626;23.382;2023-04-02T03:13:20;93473.72;;;5.61;100.00
10006;BME280;5042;42.626;23.382;2023-04-02T03:15:56;93491.91;;;5.46;100.00
10006;BME280;5042;42.626;23.382;2023-04-02T03:18:35;93486.34;;;5.49;100.00
10006;BME280;5042;42.626;23.382;2023-04-02T03:21:13;93490.91;;;5.47;100.00
10006;BME280;5042;42.626;23.382;2023-04-02T03:23:45;93500.25;;;5.41;100.00
10006;BME280;5042;42.626;23.382;2023-04-02T03:26:17;93471.84;;;5.40;100.00
10006;BME280;5042;42.626;23.382;2023-04-02T03:28:47;93483.03;;;5.40;100.00
10006;BME280;5042;42.626;23.382;2023-04-02T03:31:20;93478.28;;;5.44;100.00
10006;BME280;5042;42.626;23.382;2023-04-02T03:33:53;93503.00;;;5.55;100.00
10006;BME280;5042;42.626;23.382;2023-04-02T03:36:24;93506.50;;;5.47;100.00
10006;BME280;5042;42.626;23.382;2023-04-02T03:39:00;93492.34;;;5.49;100.00
10006;BME280;5042;42.626;23.382;2023-04-02T03:41:38;93495.94;;;5.48;100.00
10006;BME280;5042;42.626;23.382;2023-04-02T03:44:19;93513.59;;;5.38;100.00
10006;BME280;5042;42.626;23.382;2023-04-02T03:46:51;93509.81;;;5.41;100.00
10006;BME280;5042;42.626;23.382;2023-04-02T03:49:28;93525.34;;;5.49;100.00
10006;BME280;5042;42.626;23.382;2023-04-02T03:51:59;93513.69;;;5.45;100.00
10006;BME280;5042;42.626;23.382;2023-04-02T03:54:28;93519.34;;;5.63;100.00
10006;BME280;5042;42.626;23.382;2023-04-02T03:56:55;93520.31;;;5.62;100.00
10006;BME280;5042;42.626;23.382;2023-04-02T03:59:29;93513.25;;;5.56;100.00
10006;BME280;5042;42.626;23.382;2023-04-02T04:02:08;93508.84;;;5.57;100.00
10006;BME280;5042;42.626;23.382;2023-04-02T04:04:40;93492.44;;;5.56;100.00
10006;BME280;5042;42.626;23.382;2023-04-02T04:07:14;93492.97;;;5.66;100.00
10006;BME280;5042;42.626;23.382;2023-04-02T04:09:44;93502.13;;;5.77;100.00
10006;BME280;5042;42.626;23.382;2023-04-02T04:12:22;93508.41;;;5.68;100.00
10006;BME280;5042;42.626;23.382;2023-04-02T04:14:55;93502.94;;;5.63;100.00
10006;BME280;5042;42.626;23.382;2023-04-02T04:17:26;93505.19;;;5.51;100.00
10006;BME280;5042;42.626;23.382;2023-04-02T04:20:06;93481.88;;;5.28;100.00
10006;BME280;5042;42.626;23.382;2023-04-02T04:22:39;93517.44;;;5.42;100.00
10006;BME280;5042;42.626;23.382;2023-04-02T04:25:18;93511.97;;;5.52;100.00
10006;BME280;5042;42.626;23.382;2023-04-02T04:27:55;93524.06;;;5.30;100.00
10006;BME280;5042;42.626;23.382;2023-04-02T04:30:33;93535.31;;;5.07;100.00
10006;BME280;5042;42.626;23.382;2023-04-02T04:33:11;93503.81;;;4.73;100.00
10006;BME280;5042;42.626;23.382;2023-04-02T04:35:45;93536.84;;;5.02;100.00
10006;BME280;5042;42.626;23.382;2023-04-02T04:38:16;93530.22;;;4.99;100.00
10006;BME280;5042;42.626;23.382;2023-04-02T04:40:48;93544.75;;;5.08;100.00
10006;BME280;5042;42.626;23.382;2023-04-02T04:43:23;93541.16;;;5.09;100.00
10006;BME280;5042;42.626;23.382;2023-04-02T04:45:55;93545.91;;;5.21;100.00
10006;BME280;5042;42.626;23.382;2023-04-02T04:48:30;93520.94;;;5.20;100.00
10006;BME280;5042;42.626;23.382;2023-04-02T04:51:03;93533.19;;;5.26;100.00
10006;BME280;5042;42.626;23.382;2023-04-02T04:53:31;93554.84;;;5.41;100.00
10006;BME280;5042;42.626;23.382;2023-04-02T04:55:59;93550.34;;;5.35;100.00
10006;BME280;5042;42.626;23.382;2023-04-02T04:58:32;93552.56;;;5.38;100.00
10006;BME280;5042;42.626;23.382;2023-04-02T05:01:04;93518.50;;;5.03;100.00
10006;BME280;5042;42.626;23.382;2023-04-02T05:03:36;93545.50;;;5.32;100.00
10006;BME280;5042;42.626;23.382;2023-04-02T05:06:10;93542.09;;;5.46;100.00
10006;BME280;5042;42.626;23.382;2023-04-02T05:08:43;93545.97;;;5.50;100.00
10006;BME280;5042;42.626;23.382;2023-04-02T05:11:14;93552.22;;;5.71;100.00
10006;BME280;5042;42.626;23.382;2023-04-02T05:13:49;93537.91;;;5.60;100.00
10006;BME280;5042;42.626;23.382;2023-04-02T05:16:22;93550.91;;;5.60;100.00
10006;BME280;5042;42.626;23.382;2023-04-02T05:18:56;93551.97;;;5.66;100.00
10006;BME280;5042;42.626;23.382;2023-04-02T05:21:33;93543.47;;;5.72;100.00
10006;BME280;5042;42.626;23.382;2023-04-02T05:24:26;93548.00;;;5.85;100.00
10006;BME280;5042;42.626;23.382;2023-04-02T05:26:58;93548.28;;;6.05;100.00
10006;BME280;5042;42.626;23.382;2023-04-02T05:29:29;93557.84;;;6.19;100.00
10006;BME280;5042;42.626;23.382;2023-04-02T05:32:00;93561.34;;;6.26;100.00
10006;BME280;5042;42.626;23.382;2023-04-02T05:34:32;93552.41;;;6.14;100.00
10006;BME280;5042;42.626;23.382;2023-04-02T05:37:03;93563.00;;;6.49;100.00
10006;BME280;5042;42.626;23.382;2023-04-02T05:39:30;93563.47;;;6.95;100.00
10006;BME280;5042;42.626;23.382;2023-04-02T05:42:00;93531.69;;;7.63;100.00
10006;BME280;5042;42.626;23.382;2023-04-02T05:44:29;93572.66;;;8.45;100.00
10006;BME280;5042;42.626;23.382;2023-04-02T05:46:58;93571.59;;;9.34;100.00
10006;BME280;5042;42.626;23.382;2023-04-02T05:49:29;93570.19;;;10.44;100.00
10006;BME280;5042;42.626;23.382;2023-04-02T05:52:01;93567.09;;;10.98;100.00
10006;BME280;5042;42.626;23.382;2023-04-02T05:54:33;93591.50;;;11.87;100.00
10006;BME280;5042;42.626;23.382;2023-04-02T05:57:08;93590.97;;;12.22;99.33
10006;BME280;5042;42.626;23.382;2023-04-02T05:59:39;93586.50;;;13.20;100.00
10006;BME280;5042;42.626;23.382;2023-04-02T06:02:16;93600.06;;;14.13;79.55
10006;BME280;5042;42.626;23.382;2023-04-02T06:04:49;93584.56;;;14.28;80.50
10006;BME280;5042;42.626;23.382;2023-04-02T06:07:21;93594.03;;;14.76;76.47
10006;BME280;5042;42.626;23.382;2023-04-02T06:09:53;93583.47;;;14.76;74.72
10006;BME280;5042;42.626;23.382;2023-04-02T06:12:27;93608.31;;;15.21;74.58
10006;BME280;5042;42.626;23.382;2023-04-02T06:14:56;93606.25;;;15.40;69.45
10006;BME280;5042;42.626;23.382;2023-04-02T06:17:23;93600.31;;;14.75;71.62
10006;BME280;5042;42.626;23.382;2023-04-02T06:19:52;93528.44;;;13.92;72.75
10006;BME280;5042;42.626;23.382;2023-04-02T06:22:23;93583.63;;;14.58;71.34
10006;BME280;5042;42.626;23.382;2023-04-02T06:24:57;93599.59;;;13.92;74.72
10006;BME280;5042;42.626;23.382;2023-04-02T06:27:26;93571.47;;;13.09;80.66
10006;BME280;5042;42.626;23.382;2023-04-02T06:29:57;93608.16;;;13.64;78.64
10006;BME280;5042;42.626;23.382;2023-04-02T06:32:24;93595.78;;;14.24;77.47
10006;BME280;5042;42.626;23.382;2023-04-02T06:34:51;93587.91;;;14.12;79.80
10006;BME280;5042;42.626;23.382;2023-04-02T06:37:23;93590.53;;;14.24;75.72
10006;BME280;5042;42.626;23.382;2023-04-02T06:39:54;93528.59;;;13.86;71.89
10006;BME280;5042;42.626;23.382;2023-04-02T06:42:25;93600.84;;;14.25;72.64
10006;BME280;5042;42.626;23.382;2023-04-02T06:44:53;93600.94;;;13.71;75.93
10006;BME280;5042;42.626;23.382;2023-04-02T06:47:27;93595.44;;;13.61;83.80
10006;BME280;5042;42.626;23.382;2023-04-02T06:49:59;93601.78;;;13.95;79.46
10006;BME280;5042;42.626;23.382;2023-04-02T06:52:33;93609.19;;;14.46;74.58
10006;BME280;5042;42.626;23.382;2023-04-02T06:55:16;93600.25;;;14.58;70.51
10006;BME280;5042;42.626;23.382;2023-04-02T06:57:49;93605.78;;;14.33;80.44
10006;BME280;5042;42.626;23.382;2023-04-02T07:00:24;93603.41;;;14.84;72.53
10006;BME280;5042;42.626;23.382;2023-04-02T07:02:52;93607.22;;;15.34;73.64
10006;BME280;5042;42.626;23.382;2023-04-02T07:05:20;93614.31;;;15.45;69.42
10006;BME280;5042;42.626;23.382;2023-04-02T07:07:47;93621.28;;;15.22;71.48
10006;BME280;5042;42.626;23.382;2023-04-02T07:10:15;93624.16;;;15.66;65.50
10006;BME280;5042;42.626;23.382;2023-04-02T07:12:44;93626.03;;;16.17;63.80
10006;BME280;5042;42.626;23.382;2023-04-02T07:15:14;93619.41;;;16.53;60.10
10006;BME280;5042;42.626;23.382;2023-04-02T07:17:41;93625.22;;;15.82;61.61
10006;BME280;5042;42.626;23.382;2023-04-02T07:20:23;93630.16;;;15.45;64.08
10006;BME280;5042;42.626;23.382;2023-04-02T07:22:50;93625.25;;;15.54;64.79
10006;BME280;5042;42.626;23.382;2023-04-02T07:25:18;93629.03;;;15.12;63.36
10006;BME280;5042;42.626;23.382;2023-04-02T07:27:45;93634.28;;;16.03;72.91
10006;BME280;5042;42.626;23.382;2023-04-02T07:30:12;93639.00;;;16.01;60.99
10006;BME280;5042;42.626;23.382;2023-04-02T07:32:39;93636.69;;;15.14;62.96
10006;BME280;5042;42.626;23.382;2023-04-02T07:35:07;93638.00;;;14.99;66.90
10006;BME280;5042;42.626;23.382;2023-04-02T07:37:34;93633.88;;;15.78;71.23
10006;BME280;5042;42.626;23.382;2023-04-02T07:40:03;93641.56;;;17.08;61.29
10006;BME280;5042;42.626;23.382;2023-04-02T07:42:34;93641.78;;;17.55;54.42
10006;BME280;5042;42.626;23.382;2023-04-02T07:45:01;93640.00;;;17.61;55.15
10006;BME280;5042;42.626;23.382;2023-04-02T07:47:28;93643.41;;;17.84;56.99
10006;BME280;5042;42.626;23.382;2023-04-02T07:49:55;93635.25;;;18.22;55.88
10006;BME280;5042;42.626;23.382;2023-04-02T07:52:22;93636.03;;;18.60;49.86
10006;BME280;5042;42.626;23.382;2023-04-02T07:54:48;93633.44;;;18.76;50.37
10006;BME280;5042;42.626;23.382;2023-04-02T07:57:15;93635.16;;;18.97;52.57
10006;BME280;5042;42.626;23.382;2023-04-02T07:59:44;93637.22;;;19.53;49.52
10006;BME280;5042;42.626;23.382;2023-04-02T08:02:17;93635.16;;;19.96;47.20
10006;BME280;5042;42.626;23.382;2023-04-02T08:04:44;93633.56;;;19.80;44.98
10006;BME280;5042;42.626;23.382;2023-04-02T08:07:11;93642.72;;;19.31;45.29
10006;BME280;5042;42.626;23.382;2023-04-02T08:09:38;93640.34;;;19.40;49.47
10006;BME280;5042;42.626;23.382;2023-04-02T08:12:05;93643.78;;;18.72;45.82
10006;BME280;5042;42.626;23.382;2023-04-02T08:14:32;93644.22;;;18.16;45.37
10006;BME280;5042;42.626;23.382;2023-04-02T08:17:00;93628.94;;;18.34;46.09
10006;BME280;5042;42.626;23.382;2023-04-02T08:19:26;93638.72;;;17.96;44.93
10006;BME280;5042;42.626;23.382;2023-04-02T08:21:53;93633.13;;;17.65;45.78
10006;BME280;5042;42.626;23.382;2023-04-02T08:24:20;93630.31;;;17.45;45.83
10006;BME280;5042;42.626;23.382;2023-04-02T08:26:49;93621.66;;;17.05;45.91
10006;BME280;5042;42.626;23.382;2023-04-02T08:29:18;93634.13;;;16.83;49.45
10006;BME280;5042;42.626;23.382;2023-04-02T08:31:44;93633.97;;;16.56;49.78
10006;BME280;5042;42.626;23.382;2023-04-02T08:34:13;93644.00;;;16.70;48.73
10006;BME280;5042;42.626;23.382;2023-04-02T08:36:42;93649.19;;;16.82;49.40
10006;BME280;5042;42.626;23.382;2023-04-02T08:39:10;93649.84;;;16.56;48.55
10006;BME280;5042;42.626;23.382;2023-04-02T08:41:41;93650.38;;;16.36;47.99
10006;BME280;5042;42.626;23.382;2023-04-02T08:47:05;93608.38;;;15.55;52.82
10006;BME280;5042;42.626;23.382;2023-04-02T08:49:40;93640.59;;;15.68;54.57
10006;BME280;5042;42.626;23.382;2023-04-02T08:52:19;93652.34;;;16.06;51.53
10006;BME280;5042;42.626;23.382;2023-04-02T08:54:47;93650.16;;;16.20;49.99
10006;BME280;5042;42.626;23.382;2023-04-02T08:57:22;93648.41;;;16.65;47.79
10006;BME280;5042;42.626;23.382;2023-04-02T08:59:57;93637.19;;;16.97;51.48
10006;BME280;5042;42.626;23.382;2023-04-02T09:02:29;93642.16;;;17.15;49.35
10006;BME280;5042;42.626;23.382;2023-04-02T09:05:02;93636.66;;;17.71;49.59
10006;BME280;5042;42.626;23.382;2023-04-02T09:07:30;93635.88;;;18.40;52.27
10006;BME280;5042;42.626;23.382;2023-04-02T09:09:58;93638.13;;;18.58;43.56
10006;BME280;5042;42.626;23.382;2023-04-02T09:12:27;93633.47;;;18.38;48.37
10006;BME280;5042;42.626;23.382;2023-04-02T09:15:05;93635.09;;;18.82;45.48
10006;BME280;5042;42.626;23.382;2023-04-02T09:17:37;93648.88;;;18.79;41.35
10006;BME280;5042;42.626;23.382;2023-04-02T09:20:13;93646.28;;;18.84;41.12
10006;BME280;5042;42.626;23.382;2023-04-02T09:22:43;93643.25;;;19.28;40.92
10006;BME280;5042;42.626;23.382;2023-04-02T09:25:13;93648.19;;;19.77;40.74
10006;BME280;5042;42.626;23.382;2023-04-02T09:27:40;93646.88;;;20.05;43.27
10006;BME280;5042;42.626;23.382;2023-04-02T09:30:13;93656.16;;;20.54;41.23
10006;BME280;5042;42.626;23.382;2023-04-02T09:32:49;93658.81;;;19.98;37.99
10006;BME280;5042;42.626;23.382;2023-04-02T09:35:19;93628.94;;;19.49;38.93
10006;BME280;5042;42.626;23.382;2023-04-02T09:37:46;93639.56;;;19.34;40.51
10006;BME280;5042;42.626;23.382;2023-04-02T09:40:21;93633.78;;;19.58;37.76
10006;BME280;5042;42.626;23.382;2023-04-02T09:43:01;93569.44;;;19.61;37.59
10006;BME280;5042;42.626;23.382;2023-04-02T09:45:28;93627.69;;;19.88;38.30
10006;BME280;5042;42.626;23.382;2023-04-02T09:47:56;93637.06;;;19.12;40.95
10006;BME280;5042;42.626;23.382;2023-04-02T09:50:28;93627.25;;;19.13;39.80
10006;BME280;5042;42.626;23.382;2023-04-02T09:52:56;93622.31;;;18.79;40.03
10006;BME280;5042;42.626;23.382;2023-04-02T09:55:25;93610.28;;;18.18;41.73
10006;BME280;5042;42.626;23.382;2023-04-02T09:58:12;93618.00;;;17.88;40.69
10006;BME280;5042;42.626;23.382;2023-04-02T10:00:48;93618.59;;;17.41;44.15
10006;BME280;5042;42.626;23.382;2023-04-02T10:03:22;93622.59;;;17.16;42.77
10006;BME280;5042;42.626;23.382;2023-04-02T10:06:05;93621.38;;;17.02;43.67
10006;BME280;5042;42.626;23.382;2023-04-02T10:08:32;93630.13;;;16.63;44.06
10006;BME280;5042;42.626;23.382;2023-04-02T10:11:02;93628.41;;;16.52;41.59
10006;BME280;5042;42.626;23.382;2023-04-02T10:13:32;93621.16;;;16.64;42.91
10006;BME280;5042;42.626;23.382;2023-04-02T10:16:02;93622.53;;;16.50;41.40
10006;BME280;5042;42.626;23.382;2023-04-02T10:18:40;93440.72;;;15.23;42.49
10006;BME280;5042;42.626;23.382;2023-04-02T10:21:14;93606.19;;;16.14;42.43
10006;BME280;5042;42.626;23.382;2023-04-02T10:23:41;93618.19;;;16.61;42.12
10006;BME280;5042;42.626;23.382;2023-04-02T10:26:22;93595.91;;;16.57;41.87
10006;BME280;5042;42.626;23.382;2023-04-02T10:29:03;93613.03;;;16.71;43.04
10006;BME280;5042;42.626;23.382;2023-04-02T10:31:39;93611.75;;;16.95;42.09
10006;BME280;5042;42.626;23.382;2023-04-02T10:34:16;93616.00;;;17.46;42.24
10006;BME280;5042;42.626;23.382;2023-04-02T10:36:49;93610.06;;;17.88;42.99
10006;BME280;5042;42.626;23.382;2023-04-02T10:39:21;93611.75;;;18.41;42.61
10006;BME280;5042;42.626;23.382;2023-04-02T10:41:52;93589.06;;;18.18;39.85
10006;BME280;5042;42.626;23.382;2023-04-02T10:44:33;93624.09;;;17.88;38.78
10006;BME280;5042;42.626;23.382;2023-04-02T10:47:13;93613.69;;;17.82;39.55
10006;BME280;5042;42.626;23.382;2023-04-02T10:49:48;93609.09;;;17.99;42.37
10006;BME280;5042;42.626;23.382;2023-04-02T10:52:19;93611.88;;;18.19;40.07
10006;BME280;5042;42.626;23.382;2023-04-02T10:54:48;93615.38;;;17.93;43.73
10006;BME280;5042;42.626;23.382;2023-04-02T10:57:28;93606.06;;;17.31;44.07
10006;BME280;5042;42.626;23.382;2023-04-02T11:00:04;93601.31;;;16.67;45.31
10006;BME280;5042;42.626;23.382;2023-04-02T11:02:38;93592.44;;;16.34;46.93
10006;BME280;5042;42.626;23.382;2023-04-02T11:05:16;93594.66;;;15.86;47.92
10006;BME280;5042;42.626;23.382;2023-04-02T11:08:02;93599.78;;;15.93;50.73
10006;BME280;5042;42.626;23.382;2023-04-02T11:10:36;93591.06;;;15.76;50.65
10006;BME280;5042;42.626;23.382;2023-04-02T11:13:10;93594.06;;;16.01;49.25
10006;BME280;5042;42.626;23.382;2023-04-02T11:15:38;93598.41;;;16.07;48.45
10006;BME280;5042;42.626;23.382;2023-04-02T11:18:05;93590.84;;;15.65;47.45
10006;BME280;5042;42.626;23.382;2023-04-02T11:21:04;93595.41;;;15.53;50.83
10006;BME280;5042;42.626;23.382;2023-04-02T11:23:35;93581.31;;;15.47;51.24
10006;BME280;5042;42.626;23.382;2023-04-02T11:26:30;93583.25;;;15.52;49.57
10006;BME280;5042;42.626;23.382;2023-04-02T11:29:13;93588.41;;;16.09;51.87
10006;BME280;5042;42.626;23.382;2023-04-02T11:31:41;93588.88;;;16.23;48.78
10006;BME280;5042;42.626;23.382;2023-04-02T11:34:12;93558.94;;;16.23;49.87
10006;BME280;5042;42.626;23.382;2023-04-02T11:37:01;93570.47;;;15.95;49.48
10006;BME280;5042;42.626;23.382;2023-04-02T11:39:50;93578.78;;;15.86;50.61
10006;BME280;5042;42.626;23.382;2023-04-02T11:42:30;93569.41;;;16.13;50.15
10006;BME280;5042;42.626;23.382;2023-04-02T11:45:00;93575.38;;;16.25;48.54
10006;BME280;5042;42.626;23.382;2023-04-02T11:50:45;93590.06;;;16.16;47.73
10006;BME280;5042;42.626;23.382;2023-04-02T11:53:19;93596.41;;;16.15;49.36
10006;BME280;5042;42.626;23.382;2023-04-02T11:56:05;93594.63;;;16.03;47.26
10006;BME280;5042;42.626;23.382;2023-04-02T11:58:43;93585.69;;;15.71;47.70
10006;BME280;5042;42.626;23.382;2023-04-02T12:04:36;93568.50;;;15.39;52.43
10006;BME280;5042;42.626;23.382;2023-04-02T12:07:21;93577.97;;;15.52;53.64
10006;BME280;5042;42.626;23.382;2023-04-02T12:09:53;93571.91;;;15.85;50.97
10006;BME280;5042;42.626;23.382;2023-04-02T12:12:27;93578.72;;;15.98;50.75
10006;BME280;5042;42.626;23.382;2023-04-02T12:14:55;93577.47;;;16.23;48.72
10006;BME280;5042;42.626;23.382;2023-04-02T12:17:27;93571.00;;;16.52;49.75
10006;BME280;5042;42.626;23.382;2023-04-02T12:19:55;93569.84;;;16.87;52.01
10006;BME280;5042;42.626;23.382;2023-04-02T12:22:24;93562.59;;;17.32;47.96
10006;BME280;5042;42.626;23.382;2023-04-02T12:24:54;93559.75;;;17.38;48.50
10006;BME280;5042;42.626;23.382;2023-04-02T12:27:25;93548.72;;;17.47;45.17
10006;BME280;5042;42.626;23.382;2023-04-02T12:29:54;93566.91;;;17.38;46.14
10006;BME280;5042;42.626;23.382;2023-04-02T12:32:26;93569.38;;;17.45;45.73
10006;BME280;5042;42.626;23.382;2023-04-02T12:34:55;93547.06;;;17.41;46.91
10006;BME280;5042;42.626;23.382;2023-04-02T12:37:25;93569.09;;;17.46;46.76
10006;BME280;5042;42.626;23.382;2023-04-02T12:39:55;93571.03;;;17.24;46.27
10006;BME280;5042;42.626;23.382;2023-04-02T12:42:31;93567.78;;;17.16;46.88
10006;BME280;5042;42.626;23.382;2023-04-02T12:44:58;93562.13;;;17.08;45.36
10006;BME280;5042;42.626;23.382;2023-04-02T12:47:26;93555.88;;;16.92;46.12
10006;BME280;5042;42.626;23.382;2023-04-02T12:49:54;93565.59;;;16.86;47.50
10006;BME280;5042;42.626;23.382;2023-04-02T12:52:23;93553.59;;;16.79;46.77
10006;BME280;5042;42.626;23.382;2023-04-02T12:54:54;93530.34;;;16.59;47.07
10006;BME280;5042;42.626;23.382;2023-04-02T12:57:38;93557.03;;;16.79;46.76
10006;BME280;5042;42.626;23.382;2023-04-02T13:00:33;93547.59;;;16.44;46.38
10006;BME280;5042;42.626;23.382;2023-04-02T13:03:19;93544.22;;;16.49;48.29
10006;BME280;5042;42.626;23.382;2023-04-02T13:05:51;93547.19;;;16.52;47.17
10006;BME280;5042;42.626;23.382;2023-04-02T13:08:22;93543.75;;;16.52;46.00
10006;BME280;5042;42.626;23.382;2023-04-02T13:10:55;93493.41;;;16.25;49.10
10006;BME280;5042;42.626;23.382;2023-04-02T13:13:27;93544.41;;;16.86;48.21
10006;BME280;5042;42.626;23.382;2023-04-02T13:16:04;93541.38;;;17.27;45.61
10006;BME280;5042;42.626;23.382;2023-04-02T13:18:31;93543.28;;;17.64;45.52
10006;BME280;5042;42.626;23.382;2023-04-02T13:21:02;93530.59;;;18.03;45.24
10006;BME280;5042;42.626;23.382;2023-04-02T13:23:34;93508.34;;;17.72;43.83
10006;BME280;5042;42.626;23.382;2023-04-02T13:26:11;93543.25;;;17.58;45.91
10006;BME280;5042;42.626;23.382;2023-04-02T13:28:42;93536.50;;;17.46;42.90
10006;BME280;5042;42.626;23.382;2023-04-02T13:31:14;93531.75;;;17.48;44.85
10006;BME280;5042;42.626;23.382;2023-04-02T13:33:41;93534.66;;;17.46;44.61
10006;BME280;5042;42.626;23.382;2023-04-02T13:36:10;93541.47;;;17.69;42.71
10006;BME280;5042;42.626;23.382;2023-04-02T13:38:37;93535.66;;;17.72;42.47
10006;BME280;5042;42.626;23.382;2023-04-02T13:41:04;93538.25;;;17.94;43.65
10006;BME280;5042;42.626;23.382;2023-04-02T13:43:31;93532.78;;;18.11;43.34